Time,TemperatureF,DewpointF,PressureIn,WindDirection,WindDirectionDegrees,WindSpeedMPH,WindSpeedGustMPH,Humidity,HourlyPrecipIn,Conditions,Clouds,dailyrainin,SolarRadiationWatts/m^2,SoftwareType,DateUTC
2013-05-28 00:05:00,39.8,36.0,30.25,WNW,289,0.0,-999.0,85,-99.99,,,0.00,0,weatherlink.com 1.10,2013-05-28 04:05:00,
2013-05-28 00:20:00,39.3,35.0,30.25,WNW,289,0.0,-999.0,85,-99.99,,,0.00,0,weatherlink.com 1.10,2013-05-28 04:20:00,
2013-05-28 00:35:00,38.8,35.0,30.25,WNW,289,0.0,-999.0,86,-99.99,,,0.00,0,weatherlink.com 1.10,2013-05-28 04:35:00,
2013-05-28 00:50:00,38.3,35.0,30.26,WNW,289,0.0,-999.0,86,-99.99,,,0.00,0,weatherlink.com 1.10,2013-05-28 04:50:00,
2013-05-28 01:05:00,37.8,34.0,30.25,WNW,289,0.0,-999.0,86,-99.99,,,0.00,0,weatherlink.com 1.10,2013-05-28 05:05:00,
2013-05-28 01:20:00,37.3,34.0,30.26,WNW,289,0.0,-999.0,87,-99.99,,,0.00,0,weatherlink.com 1.10,2013-05-28 05:20:00,
2013-05-28 01:35:00,36.9,33.0,30.26,WNW,289,0.0,-999.0,87,-99.99,,,0.00,0,weatherlink.com 1.10,2013-05-28 05:35:00,
2013-05-28 01:50:00,36.6,33.0,30.26,WNW,289,0.0,-999.0,88,-99.99,,,0.00,0,weatherlink.com 1.10,2013-05-28 05:50:00,
2013-05-28 02:05:00,36.4,33.0,30.26,WNW,289,0.0,-999.0,88,-99.99,,,0.00,0,weatherlink.com 1.10,2013-05-28 06:05:00,
2013-05-28 02:20:00,36.2,33.0,30.25,WNW,289,0.0,-999.0,88,-99.99,,,0.00,0,weatherlink.com 1.10,2013-05-28 06:20:00,
2013-05-28 02:35:00,36.0,33.0,30.25,WNW,289,0.0,-999.0,89,-99.99,,,0.00,0,weatherlink.com 1.10,2013-05-28 06:35:00,
2013-05-28 02:51:00,35.8,33.0,30.24,WNW,289,0.0,-999.0,89,-99.99,,,0.00,0,weatherlink.com 1.10,2013-05-28 06:51:00,
2013-05-28 03:05:00,35.6,33.0,30.24,WNW,289,0.0,-999.0,89,-99.99,,,0.00,0,weatherlink.com 1.10,2013-05-28 07:05:00,
2013-05-28 03:20:00,35.5,33.0,30.24,WNW,289,0.0,-999.0,90,-99.99,,,0.00,0,weatherlink.com 1.10,2013-05-28 07:20:00,
2013-05-28 03:35:00,35.4,33.0,30.24,WNW,289,0.0,-999.0,90,-99.99,,,0.00,0,weatherlink.com 1.10,2013-05-28 07:35:00,
2013-05-28 03:50:00,35.3,33.0,30.24,WNW,289,0.0,-999.0,90,-99.99,,,0.00,0,weatherlink.com 1.10,2013-05-28 07:50:00,
2013-05-28 04:05:00,35.2,33.0,30.24,WNW,289,0.0,-999.0,90,-99.99,,,0.00,0,weatherlink.com 1.10,2013-05-28 08:05:00,
2013-05-28 04:20:00,35.1,33.0,30.24,WNW,289,0.0,-999.0,91,-99.99,,,0.00,0,weatherlink.com 1.10,2013-05-28 08:20:00,
2013-05-28 04:35:00,35.0,33.0,30.24,WNW,289,0.0,-999.0,91,-99.99,,,0.00,0,weatherlink.com 1.10,2013-05-28 08:35:00,
2013-05-28 04:50:00,35.0,33.0,30.24,WNW,289,0.0,-999.0,91,-99.99,,,0.00,0,weatherlink.com 1.10,2013-05-28 08:50:00,
2013-05-28 05:05:00,34.9,33.0,30.24,WNW,289,0.0,-999.0,91,-99.99,,,0.00,0,weatherlink.com 1.10,2013-05-28 09:05:00,
2013-05-28 05:20:00,34.9,33.0,30.25,WNW,289,0.0,-999.0,91,-99.99,,,0.00,0,weatherlink.com 1.10,2013-05-28 09:20:00,
2013-05-28 05:35:00,34.9,33.0,30.25,WNW,289,0.0,-999.0,91,-99.99,,,0.00,11,weatherlink.com 1.10,2013-05-28 09:35:00,
2013-05-28 05:50:00,34.8,33.0,30.25,WNW,289,0.0,-999.0,92,-99.99,,,0.00,28,weatherlink.com 1.10,2013-05-28 09:50:00,
2013-05-28 06:05:00,35.0,33.0,30.25,WNW,289,0.0,-999.0,92,-99.99,,,0.00,40,weatherlink.com 1.10,2013-05-28 10:05:00,
2013-05-28 06:20:00,35.4,33.0,30.25,WNW,289,0.0,-999.0,92,-99.99,,,0.00,58,weatherlink.com 1.10,2013-05-28 10:20:00,
2013-05-28 06:35:00,36.3,34.0,30.25,WNW,289,0.0,-999.0,92,-99.99,,,0.00,90,weatherlink.com 1.10,2013-05-28 10:35:00,
2013-05-28 06:50:00,37.3,36.0,30.25,WNW,289,0.0,-999.0,93,-99.99,,,0.00,109,weatherlink.com 1.10,2013-05-28 10:50:00,
2013-05-28 07:05:00,38.6,37.0,30.24,WNW,289,0.0,-999.0,93,-99.99,,,0.00,207,weatherlink.com 1.10,2013-05-28 11:05:00,
2013-05-28 07:20:00,40.8,39.0,30.23,WNW,289,0.0,-999.0,93,-99.99,,,0.00,292,weatherlink.com 1.10,2013-05-28 11:20:00,
2013-05-28 07:35:00,43.9,41.0,30.23,WNW,289,1.0,-999.0,90,-99.99,,,0.00,346,weatherlink.com 1.10,2013-05-28 11:35:00,
2013-05-28 07:50:00,46.9,42.0,30.23,North,5,1.0,-999.0,82,-99.99,,,0.00,425,weatherlink.com 1.10,2013-05-28 11:50:00,
2013-05-28 08:05:00,50.9,41.0,30.22,East,101,2.0,-999.0,68,-99.99,,,0.00,459,weatherlink.com 1.10,2013-05-28 12:05:00,
2013-05-28 08:20:00,55.1,39.0,30.22,ENE,63,0.0,-999.0,56,-99.99,,,0.00,512,weatherlink.com 1.10,2013-05-28 12:20:00,
2013-05-28 08:35:00,57.9,41.0,30.22,East,90,3.0,-999.0,53,-99.99,,,0.00,301,weatherlink.com 1.10,2013-05-28 12:35:00,
2013-05-28 08:50:00,59.9,42.0,30.22,East,80,0.0,-999.0,52,-99.99,,,0.00,519,weatherlink.com 1.10,2013-05-28 12:50:00,
2013-05-28 09:05:00,62.0,42.0,30.22,NE,53,0.0,-999.0,49,-99.99,,,0.00,561,weatherlink.com 1.10,2013-05-28 13:05:00,
2013-05-28 09:20:00,63.9,41.0,30.22,ENE,61,0.0,-999.0,44,-99.99,,,0.00,543,weatherlink.com 1.10,2013-05-28 13:20:00,
2013-05-28 09:35:00,64.8,41.0,30.22,SW,214,0.0,-999.0,42,-99.99,,,0.00,504,weatherlink.com 1.10,2013-05-28 13:35:00,
2013-05-28 09:50:00,64.5,42.0,30.22,WSW,248,0.0,-999.0,44,-99.99,,,0.00,438,weatherlink.com 1.10,2013-05-28 13:50:00,
2013-05-28 10:05:00,64.5,41.0,30.21,SE,135,2.0,-999.0,42,-99.99,,,0.00,464,weatherlink.com 1.10,2013-05-28 14:05:00,
2013-05-28 10:20:00,64.3,40.0,30.21,SE,128,5.0,-999.0,41,-99.99,,,0.00,492,weatherlink.com 1.10,2013-05-28 14:20:00,
2013-05-28 10:36:00,63.9,40.0,30.21,South,184,4.0,-999.0,42,-99.99,,,0.00,519,weatherlink.com 1.10,2013-05-28 14:36:00,
2013-05-28 10:50:00,64.0,40.0,30.21,South,182,4.0,-999.0,42,-99.99,,,0.00,501,weatherlink.com 1.10,2013-05-28 14:50:00,
2013-05-28 11:05:00,64.3,41.0,30.21,SE,136,6.0,-999.0,43,-99.99,,,0.00,492,weatherlink.com 1.10,2013-05-28 15:05:00,
2013-05-28 11:20:00,64.7,41.0,30.21,SSW,199,5.0,-999.0,42,-99.99,,,0.00,494,weatherlink.com 1.10,2013-05-28 15:20:00,
2013-05-28 11:35:00,65.0,39.0,30.21,SSW,198,9.0,-999.0,38,-99.99,,,0.00,561,weatherlink.com 1.10,2013-05-28 15:35:00,
2013-05-28 11:50:00,65.1,39.0,30.21,ESE,123,3.0,-999.0,38,-99.99,,,0.00,594,weatherlink.com 1.10,2013-05-28 15:50:00,
2013-05-28 12:20:00,65.3,39.0,30.20,SW,215,8.0,-999.0,38,-99.99,,,0.00,466,weatherlink.com 1.10,2013-05-28 16:20:00,
2013-05-28 12:35:00,65.2,38.0,30.20,ESE,113,4.0,-999.0,37,-99.99,,,0.00,432,weatherlink.com 1.10,2013-05-28 16:35:00,
2013-05-28 12:50:00,64.7,38.0,30.20,SSE,148,3.0,-999.0,37,-99.99,,,0.00,394,weatherlink.com 1.10,2013-05-28 16:50:00,
2013-05-28 13:05:00,64.3,39.0,30.20,SSW,194,4.0,-999.0,39,-99.99,,,0.00,311,weatherlink.com 1.10,2013-05-28 17:05:00,
2013-05-28 13:20:00,63.7,39.0,30.20,SSW,209,1.0,-999.0,41,-99.99,,,0.00,250,weatherlink.com 1.10,2013-05-28 17:20:00,
2013-05-28 13:35:00,63.1,40.0,30.21,South,174,11.0,-999.0,43,-99.99,,,0.00,211,weatherlink.com 1.10,2013-05-28 17:35:00,
2013-05-28 13:50:00,61.8,41.0,30.21,South,189,1.0,-999.0,47,-99.99,,,0.00,213,weatherlink.com 1.10,2013-05-28 17:50:00,
2013-05-28 14:05:00,59.7,46.0,30.21,SW,225,3.0,-999.0,62,-99.99,,,0.00,156,weatherlink.com 1.10,2013-05-28 18:05:00,
2013-05-28 14:20:00,56.7,48.0,30.21,SSW,194,5.0,-999.0,72,-99.99,,,0.01,123,weatherlink.com 1.10,2013-05-28 18:20:00,
2013-05-28 14:35:00,55.0,48.0,30.21,SW,224,3.0,-999.0,77,-99.99,,,0.03,135,weatherlink.com 1.10,2013-05-28 18:35:00,
2013-05-28 14:50:00,53.7,47.0,30.21,SE,133,3.0,-999.0,79,-99.99,,,0.05,149,weatherlink.com 1.10,2013-05-28 18:50:00,
2013-05-28 15:05:00,52.9,47.0,30.21,ESE,113,3.0,-999.0,80,-99.99,,,0.07,156,weatherlink.com 1.10,2013-05-28 19:05:00,
2013-05-28 15:20:00,52.4,47.0,30.20,East,93,0.0,-999.0,82,-99.99,,,0.08,239,weatherlink.com 1.10,2013-05-28 19:20:00,
2013-05-28 15:35:00,53.3,49.0,30.19,SSE,165,1.0,-999.0,85,-99.99,,,0.09,394,weatherlink.com 1.10,2013-05-28 19:35:00,
2013-05-28 15:50:00,54.6,49.0,30.19,WSW,237,1.0,-999.0,82,-99.99,,,0.09,197,weatherlink.com 1.10,2013-05-28 19:50:00,
2013-05-28 16:05:00,54.8,50.0,30.18,ENE,68,2.0,-999.0,83,-99.99,,,0.09,225,weatherlink.com 1.10,2013-05-28 20:05:00,
2013-05-28 16:20:00,54.8,50.0,30.18,ENE,71,2.0,-999.0,85,-99.99,,,0.09,308,weatherlink.com 1.10,2013-05-28 20:20:00,
2013-05-28 16:35:00,54.8,51.0,30.17,NE,49,3.0,-999.0,86,-99.99,,,0.09,367,weatherlink.com 1.10,2013-05-28 20:35:00,
2013-05-28 16:50:00,55.0,51.0,30.18,ENE,58,5.0,-999.0,87,-99.99,,,0.09,251,weatherlink.com 1.10,2013-05-28 20:50:00,
2013-05-28 17:05:00,55.1,51.0,30.18,ESE,115,5.0,-999.0,87,-99.99,,,0.09,135,weatherlink.com 1.10,2013-05-28 21:05:00,
2013-05-28 17:20:00,55.4,52.0,30.17,ESE,122,6.0,-999.0,87,-99.99,,,0.09,104,weatherlink.com 1.10,2013-05-28 21:20:00,
2013-05-28 17:35:00,56.1,52.0,30.17,SSE,161,4.0,-999.0,85,-99.99,,,0.09,93,weatherlink.com 1.10,2013-05-28 21:35:00,
2013-05-28 17:50:00,56.7,52.0,30.17,SE,129,0.0,-999.0,84,-99.99,,,0.09,149,weatherlink.com 1.10,2013-05-28 21:50:00,
2013-05-28 18:05:00,57.1,52.0,30.16,SW,236,2.0,-999.0,84,-99.99,,,0.09,125,weatherlink.com 1.10,2013-05-28 22:05:00,
2013-05-28 18:21:00,57.3,52.0,30.17,SSW,206,7.0,-999.0,82,-99.99,,,0.09,125,weatherlink.com 1.10,2013-05-28 22:21:00,
2013-05-28 18:36:00,57.4,52.0,30.16,ESE,123,2.0,-999.0,82,-99.99,,,0.09,185,weatherlink.com 1.10,2013-05-28 22:36:00,
2013-05-28 18:51:00,57.6,52.0,30.16,South,189,2.0,-999.0,81,-99.99,,,0.09,98,weatherlink.com 1.10,2013-05-28 22:51:00,
2013-05-28 19:06:00,57.2,51.0,30.15,SSW,194,4.0,-999.0,81,-99.99,,,0.09,84,weatherlink.com 1.10,2013-05-28 23:06:00,
2013-05-28 19:21:00,56.9,52.0,30.14,ESE,115,4.0,-999.0,82,-99.99,,,0.09,49,weatherlink.com 1.10,2013-05-28 23:21:00,
2013-05-28 19:36:00,56.8,51.0,30.14,South,171,7.0,-999.0,82,-99.99,,,0.09,25,weatherlink.com 1.10,2013-05-28 23:36:00,
2013-05-28 19:51:00,56.7,52.0,30.14,South,169,4.0,-999.0,83,-99.99,,,0.09,5,weatherlink.com 1.10,2013-05-28 23:51:00,
2013-05-28 20:06:00,56.4,51.0,30.15,South,171,5.0,-999.0,83,-99.99,,,0.09,0,weatherlink.com 1.10,2013-05-29 00:06:00,
2013-05-28 20:21:00,56.1,51.0,30.14,SE,145,6.0,-999.0,84,-99.99,,,0.09,0,weatherlink.com 1.10,2013-05-29 00:21:00,
2013-05-28 20:36:00,56.0,51.0,30.14,SSW,205,2.0,-999.0,84,-99.99,,,0.09,0,weatherlink.com 1.10,2013-05-29 00:36:00,
2013-05-28 20:51:00,56.0,52.0,30.14,SSW,194,4.0,-999.0,85,-99.99,,,0.09,0,weatherlink.com 1.10,2013-05-29 00:51:00,
2013-05-28 21:06:00,55.8,51.0,30.14,SSW,200,5.0,-999.0,85,-99.99,,,0.09,0,weatherlink.com 1.10,2013-05-29 01:06:00,
2013-05-28 21:21:00,55.6,51.0,30.14,SSE,150,4.0,-999.0,85,-99.99,,,0.09,0,weatherlink.com 1.10,2013-05-29 01:21:00,
2013-05-28 21:36:00,55.4,51.0,30.14,SW,215,1.0,-999.0,86,-99.99,,,0.09,0,weatherlink.com 1.10,2013-05-29 01:36:00,
2013-05-28 21:51:00,55.4,51.0,30.14,SSW,192,1.0,-999.0,86,-99.99,,,0.09,0,weatherlink.com 1.10,2013-05-29 01:51:00,
2013-05-28 22:06:00,55.4,52.0,30.15,South,173,5.0,-999.0,87,-99.99,,,0.09,0,weatherlink.com 1.10,2013-05-29 02:06:00,
2013-05-28 22:21:00,55.4,52.0,30.15,SW,220,1.0,-999.0,87,-99.99,,,0.09,0,weatherlink.com 1.10,2013-05-29 02:21:00,
2013-05-28 22:36:00,55.5,52.0,30.14,SE,146,1.0,-999.0,87,-99.99,,,0.09,0,weatherlink.com 1.10,2013-05-29 02:36:00,
2013-05-28 22:51:00,55.6,52.0,30.14,SW,220,2.0,-999.0,87,-99.99,,,0.10,0,weatherlink.com 1.10,2013-05-29 02:51:00,
2013-05-28 23:06:00,55.4,52.0,30.14,SSW,210,1.0,-999.0,88,-99.99,,,0.10,0,weatherlink.com 1.10,2013-05-29 03:06:00,
2013-05-28 23:21:00,55.1,52.0,30.14,SSW,210,1.0,-999.0,88,-99.99,,,0.12,0,weatherlink.com 1.10,2013-05-29 03:21:00,
2013-05-28 23:36:00,54.8,52.0,30.14,SW,227,2.0,-999.0,89,-99.99,,,0.14,0,weatherlink.com 1.10,2013-05-29 03:36:00,
2013-05-28 23:51:00,54.7,52.0,30.14,WSW,248,1.0,-999.0,91,-99.99,,,0.21,0,weatherlink.com 1.10,2013-05-29 03:51:00,